sensor_id;sensor_type;location;lat;lon;timestamp;temperature;humidity
25688;DHT22;17407;51.120;3.702;2023-09-30T00:01:21;14.30;99.90
25688;DHT22;17407;51.120;3.702;2023-09-30T00:03:47;14.40;99.90
25688;DHT22;17407;51.120;3.702;2023-09-30T00:06:13;14.40;99.90
25688;DHT22;17407;51.120;3.702;2023-09-30T00:08:39;14.40;99.90
25688;DHT22;17407;51.120;3.702;2023-09-30T00:11:08;14.30;99.90
25688;DHT22;17407;51.120;3.702;2023-09-30T00:13:35;14.30;99.90
25688;DHT22;17407;51.120;3.702;2023-09-30T00:16:00;14.30;99.90
25688;DHT22;17407;51.120;3.702;2023-09-30T00:18:26;14.40;99.90
25688;DHT22;17407;51.120;3.702;2023-09-30T00:20:53;14.30;99.90
25688;DHT22;17407;51.120;3.702;2023-09-30T00:23:18;14.30;99.90
25688;DHT22;17407;51.120;3.702;2023-09-30T00:25:46;14.40;99.90
25688;DHT22;17407;51.120;3.702;2023-09-30T00:28:12;14.40;99.90
25688;DHT22;17407;51.120;3.702;2023-09-30T00:30:38;14.30;99.90
25688;DHT22;17407;51.120;3.702;2023-09-30T00:33:04;14.30;99.90
25688;DHT22;17407;51.120;3.702;2023-09-30T00:35:32;14.30;99.90
25688;DHT22;17407;51.120;3.702;2023-09-30T00:37:58;14.30;99.90
25688;DHT22;17407;51.120;3.702;2023-09-30T00:40:23;14.30;99.90
25688;DHT22;17407;51.120;3.702;2023-09-30T00:42:49;14.40;99.90
25688;DHT22;17407;51.120;3.702;2023-09-30T00:45:14;14.40;99.90
25688;DHT22;17407;51.120;3.702;2023-09-30T00:47:40;14.40;99.90
25688;DHT22;17407;51.120;3.702;2023-09-30T00:50:07;14.30;99.90
25688;DHT22;17407;51.120;3.702;2023-09-30T00:52:35;14.30;99.90
25688;DHT22;17407;51.120;3.702;2023-09-30T00:55:01;14.30;99.90
25688;DHT22;17407;51.120;3.702;2023-09-30T00:57:29;14.20;99.90
25688;DHT22;17407;51.120;3.702;2023-09-30T00:59:57;14.20;99.90
25688;DHT22;17407;51.120;3.702;2023-09-30T01:02:23;14.20;99.90
25688;DHT22;17407;51.120;3.702;2023-09-30T01:04:49;14.20;99.90
25688;DHT22;17407;51.120;3.702;2023-09-30T01:07:15;14.20;99.90
25688;DHT22;17407;51.120;3.702;2023-09-30T01:09:41;14.20;99.90
25688;DHT22;17407;51.120;3.702;2023-09-30T01:12:07;14.20;99.90
25688;DHT22;17407;51.120;3.702;2023-09-30T01:14:34;14.20;99.90
25688;DHT22;17407;51.120;3.702;2023-09-30T01:17:01;14.10;99.90
25688;DHT22;17407;51.120;3.702;2023-09-30T01:19:27;14.20;99.90
25688;DHT22;17407;51.120;3.702;2023-09-30T01:21:54;14.10;99.90
25688;DHT22;17407;51.120;3.702;2023-09-30T01:24:24;14.10;99.90
25688;DHT22;17407;51.120;3.702;2023-09-30T01:26:50;14.10;99.90
25688;DHT22;17407;51.120;3.702;2023-09-30T01:29:16;14.00;99.90
25688;DHT22;17407;51.120;3.702;2023-09-30T01:31:42;14.00;99.90
25688;DHT22;17407;51.120;3.702;2023-09-30T01:34:08;14.00;99.90
25688;DHT22;17407;51.120;3.702;2023-09-30T01:36:36;13.90;99.90
25688;DHT22;17407;51.120;3.702;2023-09-30T01:39:02;13.90;99.90
25688;DHT22;17407;51.120;3.702;2023-09-30T01:41:28;13.90;99.90
25688;DHT22;17407;51.120;3.702;2023-09-30T01:43:53;13.80;99.90
25688;DHT22;17407;51.120;3.702;2023-09-30T01:46:19;13.80;99.90
25688;DHT22;17407;51.120;3.702;2023-09-30T01:48:45;13.80;99.90
25688;DHT22;17407;51.120;3.702;2023-09-30T01:51:10;13.80;99.90
25688;DHT22;17407;51.120;3.702;2023-09-30T01:53:36;13.80;99.90
25688;DHT22;17407;51.120;3.702;2023-09-30T01:56:02;13.70;99.90
25688;DHT22;17407;51.120;3.702;2023-09-30T01:58:28;13.70;99.90
25688;DHT22;17407;51.120;3.702;2023-09-30T02:00:54;13.60;99.90
25688;DHT22;17407;51.120;3.702;2023-09-30T02:03:19;13.70;99.90
25688;DHT22;17407;51.120;3.702;2023-09-30T02:05:45;13.70;99.90
25688;DHT22;17407;51.120;3.702;2023-09-30T02:08:11;13.70;99.90
25688;DHT22;17407;51.120;3.702;2023-09-30T02:10:39;13.70;99.90
25688;DHT22;17407;51.120;3.702;2023-09-30T02:13:04;13.70;99.90
25688;DHT22;17407;51.120;3.702;2023-09-30T02:15:31;13.70;99.90
25688;DHT22;17407;51.120;3.702;2023-09-30T02:17:57;13.70;99.90
25688;DHT22;17407;51.120;3.702;2023-09-30T02:20:23;13.70;99.90
25688;DHT22;17407;51.120;3.702;2023-09-30T02:22:51;13.70;99.90
25688;DHT22;17407;51.120;3.702;2023-09-30T02:25:17;13.70;99.90
25688;DHT22;17407;51.120;3.702;2023-09-30T02:27:43;13.70;99.90
25688;DHT22;17407;51.120;3.702;2023-09-30T02:30:10;13.60;99.90
25688;DHT22;17407;51.120;3.702;2023-09-30T02:32:39;13.60;99.90
25688;DHT22;17407;51.120;3.702;2023-09-30T02:35:09;13.70;99.90
25688;DHT22;17407;51.120;3.702;2023-09-30T02:37:37;13.70;99.90
25688;DHT22;17407;51.120;3.702;2023-09-30T02:40:04;13.70;99.90
25688;DHT22;17407;51.120;3.702;2023-09-30T02:42:31;13.70;99.90
25688;DHT22;17407;51.120;3.702;2023-09-30T02:44:59;13.70;99.90
25688;DHT22;17407;51.120;3.702;2023-09-30T02:47:24;13.80;99.90
25688;DHT22;17407;51.120;3.702;2023-09-30T02:49:50;13.80;99.90
25688;DHT22;17407;51.120;3.702;2023-09-30T02:52:16;13.80;99.90
25688;DHT22;17407;51.120;3.702;2023-09-30T02:54:42;13.90;99.90
25688;DHT22;17407;51.120;3.702;2023-09-30T02:57:07;13.90;99.90
25688;DHT22;17407;51.120;3.702;2023-09-30T02:59:35;13.90;99.90
25688;DHT22;17407;51.120;3.702;2023-09-30T03:02:01;13.90;99.90
25688;DHT22;17407;51.120;3.702;2023-09-30T03:04:28;13.80;99.90
25688;DHT22;17407;51.120;3.702;2023-09-30T03:06:54;13.90;99.90
25688;DHT22;17407;51.120;3.702;2023-09-30T03:09:22;13.90;99.90
25688;DHT22;17407;51.120;3.702;2023-09-30T03:11:47;13.90;99.90
25688;DHT22;17407;51.120;3.702;2023-09-30T03:14:13;13.90;99.90
25688;DHT22;17407;51.120;3.702;2023-09-30T03:16:40;13.90;99.90
25688;DHT22;17407;51.120;3.702;2023-09-30T03:19:07;13.80;99.90
25688;DHT22;17407;51.120;3.702;2023-09-30T03:21:36;13.80;99.90
25688;DHT22;17407;51.120;3.702;2023-09-30T03:24:03;13.80;99.90
25688;DHT22;17407;51.120;3.702;2023-09-30T03:26:30;13.70;99.90
25688;DHT22;17407;51.120;3.702;2023-09-30T03:28:56;13.80;99.90
25688;DHT22;17407;51.120;3.702;2023-09-30T03:31:22;13.80;99.90
25688;DHT22;17407;51.120;3.702;2023-09-30T03:33:49;13.80;99.90
25688;DHT22;17407;51.120;3.702;2023-09-30T03:36:16;13.70;99.90
25688;DHT22;17407;51.120;3.702;2023-09-30T03:38:44;13.70;99.90
25688;DHT22;17407;51.120;3.702;2023-09-30T03:41:10;13.70;99.90
25688;DHT22;17407;51.120;3.702;2023-09-30T03:43:38;13.70;99.90
25688;DHT22;17407;51.120;3.702;2023-09-30T03:46:09;13.70;99.90
25688;DHT22;17407;51.120;3.702;2023-09-30T03:48:35;13.70;99.90
25688;DHT22;17407;51.120;3.702;2023-09-30T03:51:14;13.70;99.90
25688;DHT22;17407;51.120;3.702;2023-09-30T03:53:44;13.70;99.90
25688;DHT22;17407;51.120;3.702;2023-09-30T03:56:10;13.60;99.90
25688;DHT22;17407;51.120;3.702;2023-09-30T03:58:42;13.60;99.90
25688;DHT22;17407;51.120;3.702;2023-09-30T04:01:11;13.60;99.90
25688;DHT22;17407;51.120;3.702;2023-09-30T04:03:37;13.60;99.90
25688;DHT22;17407;51.120;3.702;2023-09-30T04:06:09;13.60;99.90
25688;DHT22;17407;51.120;3.702;2023-09-30T04:08:34;13.60;99.90
25688;DHT22;17407;51.120;3.702;2023-09-30T04:11:01;13.60;99.90
25688;DHT22;17407;51.120;3.702;2023-09-30T04:13:28;13.60;99.90
25688;DHT22;17407;51.120;3.702;2023-09-30T04:15:55;13.60;99.90
25688;DHT22;17407;51.120;3.702;2023-09-30T04:18:21;13.60;99.90
25688;DHT22;17407;51.120;3.702;2023-09-30T04:20:48;13.60;99.90
25688;DHT22;17407;51.120;3.702;2023-09-30T04:23:14;13.60;99.90
25688;DHT22;17407;51.120;3.702;2023-09-30T04:25:40;13.60;99.90
25688;DHT22;17407;51.120;3.702;2023-09-30T04:28:08;13.60;99.90
25688;DHT22;17407;51.120;3.702;2023-09-30T04:30:35;13.50;99.90
25688;DHT22;17407;51.120;3.702;2023-09-30T04:33:01;13.50;99.90
25688;DHT22;17407;51.120;3.702;2023-09-30T04:35:30;13.50;99.90
25688;DHT22;17407;51.120;3.702;2023-09-30T04:37:56;13.50;99.90
25688;DHT22;17407;51.120;3.702;2023-09-30T04:40:26;13.50;99.90
25688;DHT22;17407;51.120;3.702;2023-09-30T04:42:52;13.40;99.90
25688;DHT22;17407;51.120;3.702;2023-09-30T04:45:20;13.40;99.90
25688;DHT22;17407;51.120;3.702;2023-09-30T04:47:46;13.40;99.90
25688;DHT22;17407;51.120;3.702;2023-09-30T04:50:14;13.40;99.90
25688;DHT22;17407;51.120;3.702;2023-09-30T04:52:41;13.40;99.90
25688;DHT22;17407;51.120;3.702;2023-09-30T04:55:07;13.40;99.90
25688;DHT22;17407;51.120;3.702;2023-09-30T04:57:34;13.40;99.90
25688;DHT22;17407;51.120;3.702;2023-09-30T05:00:00;13.30;99.90
25688;DHT22;17407;51.120;3.702;2023-09-30T05:02:26;13.40;99.90
25688;DHT22;17407;51.120;3.702;2023-09-30T05:04:53;13.30;99.90
25688;DHT22;17407;51.120;3.702;2023-09-30T05:07:20;13.30;99.90
25688;DHT22;17407;51.120;3.702;2023-09-30T05:09:47;13.30;99.90
25688;DHT22;17407;51.120;3.702;2023-09-30T05:12:14;13.30;99.90
25688;DHT22;17407;51.120;3.702;2023-09-30T05:14:41;13.30;99.90
25688;DHT22;17407;51.120;3.702;2023-09-30T05:17:08;13.30;99.90
25688;DHT22;17407;51.120;3.702;2023-09-30T05:19:33;13.30;99.90
25688;DHT22;17407;51.120;3.702;2023-09-30T05:21:59;13.30;99.90
25688;DHT22;17407;51.120;3.702;2023-09-30T05:24:28;13.30;99.90
25688;DHT22;17407;51.120;3.702;2023-09-30T05:26:54;13.30;99.90
25688;DHT22;17407;51.120;3.702;2023-09-30T05:29:19;13.20;99.90
25688;DHT22;17407;51.120;3.702;2023-09-30T05:31:45;13.20;99.90
25688;DHT22;17407;51.120;3.702;2023-09-30T05:34:11;13.20;99.90
25688;DHT22;17407;51.120;3.702;2023-09-30T05:36:37;13.10;99.90
25688;DHT22;17407;51.120;3.702;2023-09-30T05:39:02;13.10;99.90
25688;DHT22;17407;51.120;3.702;2023-09-30T05:41:30;13.10;99.90
25688;DHT22;17407;51.120;3.702;2023-09-30T05:43:56;13.00;99.90
25688;DHT22;17407;51.120;3.702;2023-09-30T05:46:22;13.00;99.90
25688;DHT22;17407;51.120;3.702;2023-09-30T05:48:47;13.00;99.90
25688;DHT22;17407;51.120;3.702;2023-09-30T05:51:13;13.10;99.90
25688;DHT22;17407;51.120;3.702;2023-09-30T05:53:41;13.10;99.90
25688;DHT22;17407;51.120;3.702;2023-09-30T05:56:07;13.10;99.90
25688;DHT22;17407;51.120;3.702;2023-09-30T05:58:33;13.10;99.90
25688;DHT22;17407;51.120;3.702;2023-09-30T06:03:34;13.10;99.90
25688;DHT22;17407;51.120;3.702;2023-09-30T06:06:13;13.10;99.90
25688;DHT22;17407;51.120;3.702;2023-09-30T06:08:44;13.10;99.90
25688;DHT22;17407;51.120;3.702;2023-09-30T06:11:20;13.10;99.90
25688;DHT22;17407;51.120;3.702;2023-09-30T06:13:50;13.10;99.90
25688;DHT22;17407;51.120;3.702;2023-09-30T06:16:15;13.10;99.90
25688;DHT22;17407;51.120;3.702;2023-09-30T06:18:41;13.10;99.90
25688;DHT22;17407;51.120;3.702;2023-09-30T06:21:07;13.20;99.90
25688;DHT22;17407;51.120;3.702;2023-09-30T06:23:35;13.20;99.90
25688;DHT22;17407;51.120;3.702;2023-09-30T06:26:01;13.20;99.90
25688;DHT22;17407;51.120;3.702;2023-09-30T06:28:29;13.20;99.90
25688;DHT22;17407;51.120;3.702;2023-09-30T06:30:57;13.20;99.90
25688;DHT22;17407;51.120;3.702;2023-09-30T06:33:23;13.20;99.90
25688;DHT22;17407;51.120;3.702;2023-09-30T06:35:49;13.30;99.90
25688;DHT22;17407;51.120;3.702;2023-09-30T06:38:21;13.30;99.90
25688;DHT22;17407;51.120;3.702;2023-09-30T06:40:47;13.30;99.90
25688;DHT22;17407;51.120;3.702;2023-09-30T06:43:16;13.40;99.90
25688;DHT22;17407;51.120;3.702;2023-09-30T06:45:45;13.40;99.90
25688;DHT22;17407;51.120;3.702;2023-09-30T06:48:12;13.40;99.90
25688;DHT22;17407;51.120;3.702;2023-09-30T06:50:43;13.50;99.90
25688;DHT22;17407;51.120;3.702;2023-09-30T06:53:09;13.50;99.90
25688;DHT22;17407;51.120;3.702;2023-09-30T06:55:36;13.50;99.90
25688;DHT22;17407;51.120;3.702;2023-09-30T06:58:02;13.50;99.90
25688;DHT22;17407;51.120;3.702;2023-09-30T07:00:29;13.60;99.90
25688;DHT22;17407;51.120;3.702;2023-09-30T07:02:55;13.70;99.90
25688;DHT22;17407;51.120;3.702;2023-09-30T07:05:20;13.70;99.90
25688;DHT22;17407;51.120;3.702;2023-09-30T07:07:46;13.70;99.90
25688;DHT22;17407;51.120;3.702;2023-09-30T07:10:12;13.80;99.90
25688;DHT22;17407;51.120;3.702;2023-09-30T07:12:41;13.90;99.90
25688;DHT22;17407;51.120;3.702;2023-09-30T07:15:07;13.90;99.90
25688;DHT22;17407;51.120;3.702;2023-09-30T07:17:36;13.90;99.90
25688;DHT22;17407;51.120;3.702;2023-09-30T07:20:03;14.00;99.90
25688;DHT22;17407;51.120;3.702;2023-09-30T07:22:33;14.10;99.90
25688;DHT22;17407;51.120;3.702;2023-09-30T07:24:59;14.10;99.90
25688;DHT22;17407;51.120;3.702;2023-09-30T07:27:25;14.10;99.90
25688;DHT22;17407;51.120;3.702;2023-09-30T07:29:50;14.20;99.90
25688;DHT22;17407;51.120;3.702;2023-09-30T07:32:16;14.20;99.90
25688;DHT22;17407;51.120;3.702;2023-09-30T07:34:45;14.20;99.90
25688;DHT22;17407;51.120;3.702;2023-09-30T07:37:11;14.30;99.90
25688;DHT22;17407;51.120;3.702;2023-09-30T07:39:42;14.40;99.90
25688;DHT22;17407;51.120;3.702;2023-09-30T07:42:09;14.60;99.90
25688;DHT22;17407;51.120;3.702;2023-09-30T07:44:35;14.70;99.90
25688;DHT22;17407;51.120;3.702;2023-09-30T07:47:05;14.80;99.90
25688;DHT22;17407;51.120;3.702;2023-09-30T07:49:35;15.00;99.90
25688;DHT22;17407;51.120;3.702;2023-09-30T07:52:01;15.10;99.90
25688;DHT22;17407;51.120;3.702;2023-09-30T07:54:26;15.30;99.90
25688;DHT22;17407;51.120;3.702;2023-09-30T07:56:52;15.50;99.90
25688;DHT22;17407;51.120;3.702;2023-09-30T07:59:19;15.60;99.90
25688;DHT22;17407;51.120;3.702;2023-09-30T08:01:45;15.80;99.90
25688;DHT22;17407;51.120;3.702;2023-09-30T08:04:11;16.00;99.90
25688;DHT22;17407;51.120;3.702;2023-09-30T08:06:37;16.10;99.90
25688;DHT22;17407;51.120;3.702;2023-09-30T08:09:03;16.30;99.90
25688;DHT22;17407;51.120;3.702;2023-09-30T08:11:29;16.40;99.90
25688;DHT22;17407;51.120;3.702;2023-09-30T08:13:57;16.50;99.90
25688;DHT22;17407;51.120;3.702;2023-09-30T08:16:24;16.60;99.90
25688;DHT22;17407;51.120;3.702;2023-09-30T08:18:50;16.80;99.90
25688;DHT22;17407;51.120;3.702;2023-09-30T08:21:16;16.90;99.90
25688;DHT22;17407;51.120;3.702;2023-09-30T08:23:41;17.00;99.90
25688;DHT22;17407;51.120;3.702;2023-09-30T08:26:08;17.00;99.90
25688;DHT22;17407;51.120;3.702;2023-09-30T08:28:33;17.10;99.90
25688;DHT22;17407;51.120;3.702;2023-09-30T08:31:06;17.20;99.90
25688;DHT22;17407;51.120;3.702;2023-09-30T08:33:32;17.40;99.90
25688;DHT22;17407;51.120;3.702;2023-09-30T08:36:04;17.50;99.90
25688;DHT22;17407;51.120;3.702;2023-09-30T08:38:37;17.70;99.90
25688;DHT22;17407;51.120;3.702;2023-09-30T08:41:03;17.80;99.90
25688;DHT22;17407;51.120;3.702;2023-09-30T08:43:29;18.00;99.90
25688;DHT22;17407;51.120;3.702;2023-09-30T08:46:02;18.10;99.90
25688;DHT22;17407;51.120;3.702;2023-09-30T08:48:29;18.20;99.90
25688;DHT22;17407;51.120;3.702;2023-09-30T08:50:56;18.30;99.90
25688;DHT22;17407;51.120;3.702;2023-09-30T08:53:23;18.40;99.90
25688;DHT22;17407;51.120;3.702;2023-09-30T08:55:53;18.50;99.90
25688;DHT22;17407;51.120;3.702;2023-09-30T08:58:19;18.70;99.90
25688;DHT22;17407;51.120;3.702;2023-09-30T09:00:49;18.80;99.90
25688;DHT22;17407;51.120;3.702;2023-09-30T09:03:15;19.00;99.90
25688;DHT22;17407;51.120;3.702;2023-09-30T09:05:41;19.00;99.90
25688;DHT22;17407;51.120;3.702;2023-09-30T09:08:07;19.10;99.90
25688;DHT22;17407;51.120;3.702;2023-09-30T09:10:34;19.10;99.90
25688;DHT22;17407;51.120;3.702;2023-09-30T09:13:00;19.30;99.90
25688;DHT22;17407;51.120;3.702;2023-09-30T09:15:27;19.70;99.90
25688;DHT22;17407;51.120;3.702;2023-09-30T09:17:57;19.90;99.90
25688;DHT22;17407;51.120;3.702;2023-09-30T09:20:24;20.10;99.90
25688;DHT22;17407;51.120;3.702;2023-09-30T09:22:55;20.10;99.90
25688;DHT22;17407;51.120;3.702;2023-09-30T09:25:25;20.00;99.90
25688;DHT22;17407;51.120;3.702;2023-09-30T09:27:51;20.10;99.90
25688;DHT22;17407;51.120;3.702;2023-09-30T09:30:26;20.20;99.90
25688;DHT22;17407;51.120;3.702;2023-09-30T09:33:03;20.40;99.90
25688;DHT22;17407;51.120;3.702;2023-09-30T09:35:34;20.70;99.90
25688;DHT22;17407;51.120;3.702;2023-09-30T09:38:04;21.00;99.90
25688;DHT22;17407;51.120;3.702;2023-09-30T09:40:33;21.50;99.90
25688;DHT22;17407;51.120;3.702;2023-09-30T09:43:00;22.30;99.90
25688;DHT22;17407;51.120;3.702;2023-09-30T09:45:29;22.80;99.90
25688;DHT22;17407;51.120;3.702;2023-09-30T09:47:58;23.20;99.90
25688;DHT22;17407;51.120;3.702;2023-09-30T09:50:24;23.30;99.90
25688;DHT22;17407;51.120;3.702;2023-09-30T09:52:51;23.30;99.90
25688;DHT22;17407;51.120;3.702;2023-09-30T09:55:19;23.10;99.90
25688;DHT22;17407;51.120;3.702;2023-09-30T09:57:45;22.90;99.90
25688;DHT22;17407;51.120;3.702;2023-09-30T10:00:13;22.70;99.90
25688;DHT22;17407;51.120;3.702;2023-09-30T10:02:41;22.70;99.90
25688;DHT22;17407;51.120;3.702;2023-09-30T10:05:07;22.70;99.90
25688;DHT22;17407;51.120;3.702;2023-09-30T10:07:37;23.20;99.90
25688;DHT22;17407;51.120;3.702;2023-09-30T10:10:11;23.90;99.90
25688;DHT22;17407;51.120;3.702;2023-09-30T10:12:39;24.30;99.90
25688;DHT22;17407;51.120;3.702;2023-09-30T10:17:59;26.20;99.90
25688;DHT22;17407;51.120;3.702;2023-09-30T10:20:31;27.30;99.90
25688;DHT22;17407;51.120;3.702;2023-09-30T10:25:46;29.40;99.90
25688;DHT22;17407;51.120;3.702;2023-09-30T10:31:19;30.90;99.90
25688;DHT22;17407;51.120;3.702;2023-09-30T10:36:35;30.90;99.90
25688;DHT22;17407;51.120;3.702;2023-09-30T10:39:02;31.60;99.90
25688;DHT22;17407;51.120;3.702;2023-09-30T10:46:57;34.20;92.00
25688;DHT22;17407;51.120;3.702;2023-09-30T10:51:53;35.20;84.20
25688;DHT22;17407;51.120;3.702;2023-09-30T10:54:24;35.50;81.40
25688;DHT22;17407;51.120;3.702;2023-09-30T10:56:51;36.00;78.40
25688;DHT22;17407;51.120;3.702;2023-09-30T10:59:28;36.60;74.50
25688;DHT22;17407;51.120;3.702;2023-09-30T11:01:55;36.90;73.10
25688;DHT22;17407;51.120;3.702;2023-09-30T11:04:22;37.10;70.00
25688;DHT22;17407;51.120;3.702;2023-09-30T11:06:48;36.90;68.70
25688;DHT22;17407;51.120;3.702;2023-09-30T11:09:17;36.80;67.50
25688;DHT22;17407;51.120;3.702;2023-09-30T11:11:45;36.40;68.60
25688;DHT22;17407;51.120;3.702;2023-09-30T11:14:30;36.50;67.20
25688;DHT22;17407;51.120;3.702;2023-09-30T11:17:01;36.60;66.80
25688;DHT22;17407;51.120;3.702;2023-09-30T11:19:47;36.60;67.10
25688;DHT22;17407;51.120;3.702;2023-09-30T11:22:15;37.10;63.60
25688;DHT22;17407;51.120;3.702;2023-09-30T11:24:41;37.30;62.10
25688;DHT22;17407;51.120;3.702;2023-09-30T11:27:07;37.20;61.00
25688;DHT22;17407;51.120;3.702;2023-09-30T11:29:34;37.40;61.50
25688;DHT22;17407;51.120;3.702;2023-09-30T11:31:59;37.70;60.90
25688;DHT22;17407;51.120;3.702;2023-09-30T11:34:34;38.00;59.70
25688;DHT22;17407;51.120;3.702;2023-09-30T11:37:02;38.20;59.80
25688;DHT22;17407;51.120;3.702;2023-09-30T11:39:29;38.00;58.20
25688;DHT22;17407;51.120;3.702;2023-09-30T11:41:55;37.50;58.50
25688;DHT22;17407;51.120;3.702;2023-09-30T11:44:23;37.10;58.70
25688;DHT22;17407;51.120;3.702;2023-09-30T11:47:10;36.90;58.70
25688;DHT22;17407;51.120;3.702;2023-09-30T11:49:39;37.00;59.40
25688;DHT22;17407;51.120;3.702;2023-09-30T11:52:09;37.10;59.30
25688;DHT22;17407;51.120;3.702;2023-09-30T11:54:37;37.40;58.50
25688;DHT22;17407;51.120;3.702;2023-09-30T11:57:06;37.70;56.60
25688;DHT22;17407;51.120;3.702;2023-09-30T11:59:35;38.00;55.00
25688;DHT22;17407;51.120;3.702;2023-09-30T12:02:01;38.20;54.50
25688;DHT22;17407;51.120;3.702;2023-09-30T12:04:28;36.90;55.60
25688;DHT22;17407;51.120;3.702;2023-09-30T12:06:53;35.20;57.20
25688;DHT22;17407;51.120;3.702;2023-09-30T12:09:19;33.90;59.50
25688;DHT22;17407;51.120;3.702;2023-09-30T12:11:51;32.50;61.20
25688;DHT22;17407;51.120;3.702;2023-09-30T12:14:17;31.80;62.90
25688;DHT22;17407;51.120;3.702;2023-09-30T12:16:43;31.10;64.30
25688;DHT22;17407;51.120;3.702;2023-09-30T12:19:13;30.20;67.60
25688;DHT22;17407;51.120;3.702;2023-09-30T12:21:39;29.50;70.50
25688;DHT22;17407;51.120;3.702;2023-09-30T12:24:06;29.20;72.70
25688;DHT22;17407;51.120;3.702;2023-09-30T12:26:33;29.20;71.70
25688;DHT22;17407;51.120;3.702;2023-09-30T12:28:58;29.40;70.60
25688;DHT22;17407;51.120;3.702;2023-09-30T12:31:24;29.50;68.60
25688;DHT22;17407;51.120;3.702;2023-09-30T12:33:50;29.30;68.20
25688;DHT22;17407;51.120;3.702;2023-09-30T12:36:18;29.00;68.00
25688;DHT22;17407;51.120;3.702;2023-09-30T12:38:44;28.70;69.00
25688;DHT22;17407;51.120;3.702;2023-09-30T12:41:10;28.70;68.60
25688;DHT22;17407;51.120;3.702;2023-09-30T12:43:36;28.40;68.40
25688;DHT22;17407;51.120;3.702;2023-09-30T12:46:02;28.00;69.50
25688;DHT22;17407;51.120;3.702;2023-09-30T12:48:28;27.60;71.30
25688;DHT22;17407;51.120;3.702;2023-09-30T12:50:53;27.30;73.50
25688;DHT22;17407;51.120;3.702;2023-09-30T12:53:19;27.20;75.10
25688;DHT22;17407;51.120;3.702;2023-09-30T12:55:45;27.30;74.30
25688;DHT22;17407;51.120;3.702;2023-09-30T12:58:11;27.10;74.60
25688;DHT22;17407;51.120;3.702;2023-09-30T13:00:37;27.10;75.00
25688;DHT22;17407;51.120;3.702;2023-09-30T13:03:03;27.10;74.50
25688;DHT22;17407;51.120;3.702;2023-09-30T13:05:28;27.10;75.60
25688;DHT22;17407;51.120;3.702;2023-09-30T13:07:56;27.00;75.70
25688;DHT22;17407;51.120;3.702;2023-09-30T13:10:23;26.90;76.20
25688;DHT22;17407;51.120;3.702;2023-09-30T13:12:48;26.80;77.70
25688;DHT22;17407;51.120;3.702;2023-09-30T13:15:15;26.80;77.60
25688;DHT22;17407;51.120;3.702;2023-09-30T13:17:42;26.70;77.20
25688;DHT22;17407;51.120;3.702;2023-09-30T13:20:11;26.50;77.90
25688;DHT22;17407;51.120;3.702;2023-09-30T13:22:40;26.10;79.00
25688;DHT22;17407;51.120;3.702;2023-09-30T13:25:07;26.00;80.20
25688;DHT22;17407;51.120;3.702;2023-09-30T13:27:39;26.00;80.20
25688;DHT22;17407;51.120;3.702;2023-09-30T13:30:09;25.90;81.90
25688;DHT22;17407;51.120;3.702;2023-09-30T13:32:35;25.80;81.10
25688;DHT22;17407;51.120;3.702;2023-09-30T13:35:03;25.80;81.80
25688;DHT22;17407;51.120;3.702;2023-09-30T13:37:31;25.80;81.10
25688;DHT22;17407;51.120;3.702;2023-09-30T13:40:02;25.90;81.80
25688;DHT22;17407;51.120;3.702;2023-09-30T13:42:30;26.10;80.50
25688;DHT22;17407;51.120;3.702;2023-09-30T13:44:56;26.20;78.40
25688;DHT22;17407;51.120;3.702;2023-09-30T13:47:27;26.30;77.60
25688;DHT22;17407;51.120;3.702;2023-09-30T13:49:53;26.30;76.80
25688;DHT22;17407;51.120;3.702;2023-09-30T13:52:18;26.20;77.30
25688;DHT22;17407;51.120;3.702;2023-09-30T13:54:44;26.40;78.60
25688;DHT22;17407;51.120;3.702;2023-09-30T13:57:10;26.50;77.90
25688;DHT22;17407;51.120;3.702;2023-09-30T13:59:36;26.30;77.40
25688;DHT22;17407;51.120;3.702;2023-09-30T14:02:02;26.30;77.60
25688;DHT22;17407;51.120;3.702;2023-09-30T14:04:30;26.30;77.60
25688;DHT22;17407;51.120;3.702;2023-09-30T14:06:58;26.30;77.60
25688;DHT22;17407;51.120;3.702;2023-09-30T14:09:26;26.30;78.00
25688;DHT22;17407;51.120;3.702;2023-09-30T14:11:52;26.40;78.20
25688;DHT22;17407;51.120;3.702;2023-09-30T14:14:18;26.30;77.30
25688;DHT22;17407;51.120;3.702;2023-09-30T14:16:44;26.40;77.90
25688;DHT22;17407;51.120;3.702;2023-09-30T14:19:09;26.40;77.10
25688;DHT22;17407;51.120;3.702;2023-09-30T14:21:35;26.30;77.90
25688;DHT22;17407;51.120;3.702;2023-09-30T14:24:01;26.30;77.10
25688;DHT22;17407;51.120;3.702;2023-09-30T14:26:30;26.20;77.80
25688;DHT22;17407;51.120;3.702;2023-09-30T14:28:55;26.10;78.20
25688;DHT22;17407;51.120;3.702;2023-09-30T14:31:21;26.10;78.70
25688;DHT22;17407;51.120;3.702;2023-09-30T14:33:47;26.00;79.00
25688;DHT22;17407;51.120;3.702;2023-09-30T14:36:12;25.90;79.30
25688;DHT22;17407;51.120;3.702;2023-09-30T14:38:38;25.70;79.80
25688;DHT22;17407;51.120;3.702;2023-09-30T14:41:07;25.70;81.00
25688;DHT22;17407;51.120;3.702;2023-09-30T14:43:34;25.70;80.90
25688;DHT22;17407;51.120;3.702;2023-09-30T14:46:03;25.60;80.90
25688;DHT22;17407;51.120;3.702;2023-09-30T14:48:29;25.50;80.80
25688;DHT22;17407;51.120;3.702;2023-09-30T14:50:55;25.20;81.50
25688;DHT22;17407;51.120;3.702;2023-09-30T14:53:22;25.00;82.30
25688;DHT22;17407;51.120;3.702;2023-09-30T14:55:48;24.80;83.10
25688;DHT22;17407;51.120;3.702;2023-09-30T14:58:14;24.80;84.80
25688;DHT22;17407;51.120;3.702;2023-09-30T15:00:40;24.70;85.40
25688;DHT22;17407;51.120;3.702;2023-09-30T15:03:05;24.70;85.30
25688;DHT22;17407;51.120;3.702;2023-09-30T15:05:34;24.70;85.70
25688;DHT22;17407;51.120;3.702;2023-09-30T15:08:01;24.70;85.30
25688;DHT22;17407;51.120;3.702;2023-09-30T15:10:29;24.80;85.50
25688;DHT22;17407;51.120;3.702;2023-09-30T15:12:55;25.20;84.50
25688;DHT22;17407;51.120;3.702;2023-09-30T15:15:23;25.90;84.10
25688;DHT22;17407;51.120;3.702;2023-09-30T15:17:48;26.60;81.20
25688;DHT22;17407;51.120;3.702;2023-09-30T15:20:14;27.30;79.10
25688;DHT22;17407;51.120;3.702;2023-09-30T15:22:42;27.80;77.80
25688;DHT22;17407;51.120;3.702;2023-09-30T15:25:08;28.40;76.50
25688;DHT22;17407;51.120;3.702;2023-09-30T15:27:34;28.80;74.50
25688;DHT22;17407;51.120;3.702;2023-09-30T15:30:00;29.10;73.80
25688;DHT22;17407;51.120;3.702;2023-09-30T15:32:25;29.20;74.30
25688;DHT22;17407;51.120;3.702;2023-09-30T15:34:51;29.60;73.20
25688;DHT22;17407;51.120;3.702;2023-09-30T15:37:17;30.20;72.00
25688;DHT22;17407;51.120;3.702;2023-09-30T15:39:43;31.00;69.30
25688;DHT22;17407;51.120;3.702;2023-09-30T15:42:10;31.50;68.60
25688;DHT22;17407;51.120;3.702;2023-09-30T15:44:37;31.60;67.60
25688;DHT22;17407;51.120;3.702;2023-09-30T15:47:05;31.40;68.10
25688;DHT22;17407;51.120;3.702;2023-09-30T15:49:32;30.90;68.90
25688;DHT22;17407;51.120;3.702;2023-09-30T15:51:57;30.60;69.80